Time;durP1;ratioP1;P1;durP2;ratioP2;P2;SDS_P1;SDS_P2;PMS_P1;PMS_P2;Temp;Humidity;BMP_temperature;BMP_pressure;BME280_temperature;BME280_humidity;BME280_pressure;Samples;Min_cycle;Max_cycle;Signal;HPM_P1;HPM_P2
2023/12/01 00:00:19;;;;;;;;;;;0.90;99.90;;;;;;5134001;27;20035;-31
2023/12/01 00:02:46;;;;;;;;;;;0.90;99.90;;;;;;5128677;27;19992;-30
2023/12/01 00:05:12;;;;;;;;;;;0.90;99.90;;;;;;5131748;27;19938;-30
2023/12/01 00:07:40;;;;;;;;;;;0.90;99.90;;;;;;5096236;27;19940;-30
2023/12/01 00:10:09;;;;;;;;;;;1.00;99.90;;;;;;5129247;27;20211;-30
2023/12/01 00:12:36;;;;;;;;;;;1.00;99.90;;;;;;5114055;27;20426;-30
2023/12/01 00:15:02;;;;;;;;;;;0.90;99.90;;;;;;5133307;27;19992;-30
2023/12/01 00:17:29;;;;;;;;;;;0.90;99.90;;;;;;5115110;27;20332;-31
2023/12/01 00:19:56;;;;;;;;;;;0.90;99.90;;;;;;5113973;27;19941;-30
2023/12/01 00:22:22;;;;;;;;;;;0.90;99.90;;;;;;5127632;27;19991;-30
2023/12/01 00:24:50;;;;;;;;;;;0.90;99.90;;;;;;5125215;27;19936;-30
2023/12/01 00:27:17;;;;;;;;;;;0.90;99.90;;;;;;5115080;27;19998;-30
2023/12/01 00:29:44;;;;;;;;;;;0.90;99.90;;;;;;5113524;27;20428;-30
2023/12/01 00:32:10;;;;;;;;;;;0.90;99.90;;;;;;5112176;27;20308;-30
2023/12/01 00:34:37;;;;;;;;;;;0.90;99.90;;;;;;5114437;27;19950;-29
2023/12/01 00:37:04;;;;;;;;;;;0.90;99.90;;;;;;5132767;27;19951;-30
2023/12/01 00:39:30;;;;;;;;;;;0.90;99.90;;;;;;5114191;27;20039;-29
2023/12/01 00:41:58;;;;;;;;;;;0.90;99.90;;;;;;5103697;28;19940;-30
2023/12/01 00:44:25;;;;;;;;;;;0.90;99.90;;;;;;5132452;27;19939;-30
2023/12/01 00:46:52;;;;;;;;;;;0.80;99.90;;;;;;5132684;27;19940;-31
2023/12/01 00:49:18;;;;;;;;;;;0.90;99.90;;;;;;5112578;27;19984;-30
2023/12/01 00:51:45;;;;;;;;;;;0.90;99.90;;;;;;5108547;28;19996;-30
2023/12/01 00:54:12;;;;;;;;;;;0.80;99.90;;;;;;5114599;27;20350;-30
2023/12/01 00:56:39;;;;;;;;;;;0.90;99.90;;;;;;5116199;27;20031;-30
2023/12/01 00:59:07;;;;;;;;;;;0.90;99.90;;;;;;5108190;27;19938;-31
2023/12/01 01:01:35;;;;;;;;;;;0.80;99.90;;;;;;5105437;28;19942;-30
2023/12/01 01:04:02;;;;;;;;;;;0.80;99.90;;;;;;5100696;27;19940;-31
2023/12/01 01:06:29;;;;;;;;;;;0.80;99.90;;;;;;5111066;28;19943;-29
2023/12/01 01:08:55;;;;;;;;;;;0.70;99.90;;;;;;5132026;27;19940;-30
2023/12/01 01:11:22;;;;;;;;;;;0.70;99.90;;;;;;5113259;28;20012;-30
2023/12/01 01:13:49;;;;;;;;;;;0.70;99.90;;;;;;5120504;27;19944;-31
2023/12/01 01:16:17;;;;;;;;;;;0.70;99.90;;;;;;5128896;28;20011;-29
2023/12/01 01:18:43;;;;;;;;;;;0.60;99.90;;;;;;5112321;28;19995;-31
2023/12/01 01:21:10;;;;;;;;;;;0.60;99.90;;;;;;5113941;28;19945;-31
2023/12/01 01:23:37;;;;;;;;;;;0.60;99.90;;;;;;5114257;28;20286;-31
2023/12/01 01:26:03;;;;;;;;;;;0.60;99.90;;;;;;5112275;28;20016;-30
2023/12/01 01:28:30;;;;;;;;;;;0.50;99.90;;;;;;5109570;28;19945;-30
2023/12/01 01:30:57;;;;;;;;;;;0.50;99.90;;;;;;5109641;28;20452;-30
2023/12/01 01:33:25;;;;;;;;;;;0.60;99.90;;;;;;5115231;28;19945;-30
2023/12/01 01:35:52;;;;;;;;;;;0.60;99.90;;;;;;5113573;28;19941;-31
2023/12/01 01:38:18;;;;;;;;;;;0.60;99.90;;;;;;5114313;28;19987;-31
2023/12/01 01:40:45;;;;;;;;;;;0.60;99.90;;;;;;5113512;28;20004;-30
2023/12/01 01:43:19;;;;;;;;;;;0.60;99.90;;;;;;5132168;28;20352;-31
2023/12/01 01:45:46;;;;;;;;;;;0.60;99.90;;;;;;5119696;28;19940;-31
2023/12/01 01:48:12;;;;;;;;;;;0.50;99.90;;;;;;5131251;28;19948;-31
2023/12/01 01:50:41;;;;;;;;;;;0.50;99.90;;;;;;5113223;28;20320;-31
2023/12/01 01:53:07;;;;;;;;;;;0.50;99.90;;;;;;5110111;28;19951;-30
2023/12/01 01:55:34;;;;;;;;;;;0.40;99.90;;;;;;5114343;28;19937;-30
2023/12/01 01:58:01;;;;;;;;;;;0.40;99.90;;;;;;5129179;28;20367;-31
2023/12/01 02:00:28;;;;;;;;;;;0.40;99.90;;;;;;5112075;28;20044;-30
2023/12/01 02:02:55;;;;;;;;;;;0.40;99.90;;;;;;5131632;27;19938;-30
2023/12/01 02:05:21;;;;;;;;;;;0.30;99.90;;;;;;5115912;27;20342;-30
2023/12/01 02:07:49;;;;;;;;;;;0.30;99.90;;;;;;5115611;27;19995;-30
2023/12/01 02:10:16;;;;;;;;;;;0.20;99.90;;;;;;5135938;27;19998;-30
2023/12/01 02:12:44;;;;;;;;;;;0.10;99.90;;;;;;5116847;27;19966;-30
2023/12/01 02:15:11;;;;;;;;;;;0.00;99.90;;;;;;5114688;27;19943;-31
2023/12/01 02:17:38;;;;;;;;;;;0.00;99.90;;;;;;5110459;27;19959;-31
2023/12/01 02:20:06;;;;;;;;;;;0.00;99.90;;;;;;5135712;27;20462;-31
2023/12/01 02:22:35;;;;;;;;;;;-0.10;99.90;;;;;;5117023;27;19948;-30
2023/12/01 02:25:01;;;;;;;;;;;0.00;99.90;;;;;;5130431;27;19940;-30
2023/12/01 02:27:28;;;;;;;;;;;0.00;99.90;;;;;;5116674;27;19942;-30
2023/12/01 02:29:55;;;;;;;;;;;0.00;99.90;;;;;;5134728;27;19951;-30
2023/12/01 02:32:22;;;;;;;;;;;0.00;99.90;;;;;;5124068;27;20032;-30
2023/12/01 02:34:49;;;;;;;;;;;0.00;99.90;;;;;;5108703;27;20016;-30
2023/12/01 02:37:15;;;;;;;;;;;0.00;99.90;;;;;;5116508;27;20065;-30
2023/12/01 02:39:43;;;;;;;;;;;0.00;99.90;;;;;;5117415;27;19940;-30
2023/12/01 02:42:10;;;;;;;;;;;0.00;99.90;;;;;;5107057;28;19940;-30
2023/12/01 02:44:37;;;;;;;;;;;0.00;99.90;;;;;;5132672;27;19949;-29
2023/12/01 02:47:03;;;;;;;;;;;0.00;99.90;;;;;;5116634;27;19945;-30
2023/12/01 02:49:30;;;;;;;;;;;-0.10;99.90;;;;;;5135400;27;19943;-31
2023/12/01 02:51:57;;;;;;;;;;;0.00;99.90;;;;;;5116846;27;19990;-29
2023/12/01 02:54:23;;;;;;;;;;;-0.10;99.90;;;;;;5116610;27;20037;-30
2023/12/01 02:56:52;;;;;;;;;;;-0.10;99.90;;;;;;5110514;27;20009;-30
2023/12/01 02:59:18;;;;;;;;;;;-0.20;99.90;;;;;;5117090;27;19940;-30
2023/12/01 03:01:45;;;;;;;;;;;-0.20;99.90;;;;;;5116628;27;19938;-30
2023/12/01 03:04:12;;;;;;;;;;;-0.30;99.90;;;;;;5116672;27;19941;-31
2023/12/01 03:06:38;;;;;;;;;;;-0.40;99.90;;;;;;5116163;27;19944;-30
2023/12/01 03:09:05;;;;;;;;;;;-0.40;99.90;;;;;;5135371;27;19954;-30
2023/12/01 03:11:43;;;;;;;;;;;-0.50;99.90;;;;;;5134150;27;20450;-31
2023/12/01 03:14:12;;;;;;;;;;;-0.50;99.90;;;;;;5115959;27;19941;-31
2023/12/01 03:16:38;;;;;;;;;;;-0.50;99.90;;;;;;5106383;28;19939;-31
2023/12/01 03:19:08;;;;;;;;;;;-0.50;99.90;;;;;;5109415;27;19949;-29
2023/12/01 03:21:35;;;;;;;;;;;-0.40;99.90;;;;;;5131432;27;19941;-30
2023/12/01 03:24:02;;;;;;;;;;;-0.40;99.90;;;;;;5134305;27;20293;-30
2023/12/01 03:26:29;;;;;;;;;;;-0.40;99.90;;;;;;5113230;27;19945;-30
2023/12/01 03:28:55;;;;;;;;;;;-0.40;99.90;;;;;;5116510;27;19940;-30
2023/12/01 03:31:23;;;;;;;;;;;-0.30;99.90;;;;;;5125235;27;20016;-30
2023/12/01 03:33:50;;;;;;;;;;;-0.30;99.90;;;;;;5115381;27;19943;-30
2023/12/01 03:36:16;;;;;;;;;;;-0.30;99.90;;;;;;5116831;27;19940;-30
2023/12/01 03:38:43;;;;;;;;;;;-0.30;99.90;;;;;;5115682;27;20431;-30
2023/12/01 03:41:10;;;;;;;;;;;-0.40;99.90;;;;;;5115693;27;19991;-30
2023/12/01 03:43:36;;;;;;;;;;;-0.40;99.90;;;;;;5125698;27;19989;-30
2023/12/01 03:46:03;;;;;;;;;;;-0.40;99.90;;;;;;5130398;27;20035;-29
2023/12/01 03:48:33;;;;;;;;;;;-0.40;99.90;;;;;;5115405;27;20434;-30
2023/12/01 03:50:59;;;;;;;;;;;-0.40;99.90;;;;;;5124555;27;19985;-30
2023/12/01 03:53:26;;;;;;;;;;;-0.40;99.90;;;;;;5114403;27;20521;-30
2023/12/01 03:55:53;;;;;;;;;;;-0.40;99.90;;;;;;5115508;27;19988;-30
2023/12/01 03:58:19;;;;;;;;;;;-0.40;99.90;;;;;;5128630;27;19991;-30
2023/12/01 04:00:46;;;;;;;;;;;-0.40;99.90;;;;;;5112848;27;19936;-30
2023/12/01 04:03:13;;;;;;;;;;;-0.50;99.90;;;;;;5115269;27;20405;-30
2023/12/01 04:05:41;;;;;;;;;;;-0.60;99.90;;;;;;5114831;27;19984;-31
2023/12/01 04:08:08;;;;;;;;;;;-0.60;99.90;;;;;;5116668;27;19943;-30
2023/12/01 04:10:35;;;;;;;;;;;-0.70;99.90;;;;;;5132658;27;19950;-29
2023/12/01 04:13:07;;;;;;;;;;;-0.70;99.90;;;;;;5132858;27;19991;-31
2023/12/01 04:15:34;;;;;;;;;;;-0.70;99.90;;;;;;5120611;27;19974;-29
2023/12/01 04:18:06;;;;;;;;;;;-0.60;99.90;;;;;;5114795;27;20059;-30
2023/12/01 04:20:35;;;;;;;;;;;-0.70;99.90;;;;;;5134272;27;19963;-30
2023/12/01 04:23:04;;;;;;;;;;;-0.60;99.90;;;;;;5107609;28;19947;-30
2023/12/01 04:25:30;;;;;;;;;;;-0.70;99.90;;;;;;5110095;27;19940;-30
2023/12/01 04:27:58;;;;;;;;;;;-0.80;99.90;;;;;;5112919;27;20361;-31
2023/12/01 04:30:25;;;;;;;;;;;-0.70;99.90;;;;;;5111542;28;19968;-30
2023/12/01 04:32:53;;;;;;;;;;;-0.70;99.90;;;;;;5130021;27;20399;-30
2023/12/01 04:35:20;;;;;;;;;;;-0.80;99.90;;;;;;5101415;27;19936;-30
2023/12/01 04:37:46;;;;;;;;;;;-0.70;99.90;;;;;;5115035;27;20470;-30
2023/12/01 04:40:15;;;;;;;;;;;-0.70;99.90;;;;;;5132423;27;19992;-30
2023/12/01 04:42:43;;;;;;;;;;;-0.70;99.90;;;;;;5114733;27;19946;-30
2023/12/01 04:45:11;;;;;;;;;;;-0.60;99.90;;;;;;5111654;27;19942;-30
2023/12/01 04:47:39;;;;;;;;;;;-0.70;99.90;;;;;;5116544;27;19938;-30
2023/12/01 04:50:12;;;;;;;;;;;-0.60;99.90;;;;;;5132782;27;19987;-29
2023/12/01 04:52:39;;;;;;;;;;;-0.70;99.90;;;;;;5114906;27;19989;-30
2023/12/01 04:55:06;;;;;;;;;;;-0.80;99.90;;;;;;5114248;27;19940;-30
2023/12/01 04:57:34;;;;;;;;;;;-0.70;99.90;;;;;;5114592;27;19976;-31
2023/12/01 05:00:02;;;;;;;;;;;-0.80;99.90;;;;;;5106350;28;19947;-29
2023/12/01 05:02:29;;;;;;;;;;;-0.80;99.90;;;;;;5117226;27;19936;-31
2023/12/01 05:04:55;;;;;;;;;;;-0.80;99.90;;;;;;5109201;27;19941;-29
2023/12/01 05:07:22;;;;;;;;;;;-0.80;99.90;;;;;;5113759;27;20032;-30
2023/12/01 05:09:49;;;;;;;;;;;-0.80;99.90;;;;;;5110393;28;20006;-30
2023/12/01 05:12:15;;;;;;;;;;;-0.80;99.90;;;;;;5109260;27;19955;-31
2023/12/01 05:14:43;;;;;;;;;;;-0.70;99.90;;;;;;5129183;27;19936;-33
2023/12/01 05:17:10;;;;;;;;;;;-0.70;99.90;;;;;;5110221;28;19991;-31
2023/12/01 05:19:37;;;;;;;;;;;-0.80;99.90;;;;;;5132443;28;19945;-31
2023/12/01 05:22:04;;;;;;;;;;;-0.80;99.90;;;;;;5110601;28;20462;-30
2023/12/01 05:24:30;;;;;;;;;;;-0.90;99.90;;;;;;5111456;28;20362;-30
2023/12/01 05:26:57;;;;;;;;;;;-1.00;99.90;;;;;;5115111;28;19960;-30
2023/12/01 05:29:26;;;;;;;;;;;-0.90;99.90;;;;;;5111702;28;19940;-30
2023/12/01 05:31:54;;;;;;;;;;;-1.00;99.90;;;;;;5100033;28;19940;-30
2023/12/01 05:34:21;;;;;;;;;;;-1.00;99.90;;;;;;5100134;28;19941;-30
2023/12/01 05:36:50;;;;;;;;;;;-1.00;99.90;;;;;;5109798;28;19985;-31
2023/12/01 05:39:16;;;;;;;;;;;-1.00;99.90;;;;;;5113180;27;19955;-30
2023/12/01 05:41:43;;;;;;;;;;;-1.00;99.90;;;;;;5114381;27;20042;-31
2023/12/01 05:44:10;;;;;;;;;;;-1.00;99.90;;;;;;5117444;27;19946;-29
2023/12/01 05:46:36;;;;;;;;;;;-1.10;99.90;;;;;;5114573;27;19935;-30
2023/12/01 05:49:04;;;;;;;;;;;-1.00;99.90;;;;;;5114762;27;20382;-30
2023/12/01 05:51:33;;;;;;;;;;;-1.10;99.90;;;;;;5117662;27;20005;-30
2023/12/01 05:53:59;;;;;;;;;;;-1.10;99.90;;;;;;5134047;27;19985;-30
2023/12/01 05:56:26;;;;;;;;;;;-1.10;99.90;;;;;;5115406;27;19939;-30
2023/12/01 05:58:53;;;;;;;;;;;-1.10;99.90;;;;;;5134387;27;20414;-30
2023/12/01 06:01:19;;;;;;;;;;;-1.10;99.90;;;;;;5114540;27;19944;-30
2023/12/01 06:03:46;;;;;;;;;;;-1.20;99.90;;;;;;5105179;27;19989;-30
2023/12/01 06:06:14;;;;;;;;;;;-1.20;99.90;;;;;;5117675;27;19937;-31
2023/12/01 06:08:42;;;;;;;;;;;-1.20;99.90;;;;;;5135550;27;19941;-30
2023/12/01 06:11:09;;;;;;;;;;;-1.20;99.90;;;;;;5113169;27;19984;-30
2023/12/01 06:13:35;;;;;;;;;;;-1.20;99.90;;;;;;5114535;27;19982;-29
2023/12/01 06:16:02;;;;;;;;;;;-1.20;99.90;;;;;;5132353;27;19940;-30
2023/12/01 06:18:29;;;;;;;;;;;-1.20;99.90;;;;;;5114739;27;19955;-29
2023/12/01 06:20:58;;;;;;;;;;;-1.20;99.90;;;;;;5130105;27;19937;-30
2023/12/01 06:23:26;;;;;;;;;;;-1.20;99.90;;;;;;5126475;27;19965;-29
2023/12/01 06:25:53;;;;;;;;;;;-1.20;99.90;;;;;;5113578;27;19936;-30
2023/12/01 06:28:20;;;;;;;;;;;-1.30;99.90;;;;;;5122470;27;19993;-30
2023/12/01 06:30:46;;;;;;;;;;;-1.20;99.90;;;;;;5110538;27;19936;-31
2023/12/01 06:33:13;;;;;;;;;;;-1.20;99.90;;;;;;5113212;27;19937;-30
2023/12/01 06:35:40;;;;;;;;;;;-1.30;99.90;;;;;;5115141;27;19984;-30
2023/12/01 06:38:07;;;;;;;;;;;-1.30;99.90;;;;;;5116215;27;19999;-30
2023/12/01 06:40:35;;;;;;;;;;;-1.30;99.90;;;;;;5121386;27;19964;-31
2023/12/01 06:43:02;;;;;;;;;;;-1.30;99.90;;;;;;5108740;27;20038;-30
2023/12/01 06:45:29;;;;;;;;;;;-1.30;99.90;;;;;;5108980;27;19946;-29
2023/12/01 06:47:58;;;;;;;;;;;-1.40;99.90;;;;;;5114459;27;19965;-30
2023/12/01 06:50:26;;;;;;;;;;;-1.40;99.90;;;;;;5122425;27;19943;-30
2023/12/01 06:52:53;;;;;;;;;;;-1.40;99.90;;;;;;5123206;27;19943;-29
2023/12/01 06:55:20;;;;;;;;;;;-1.40;99.90;;;;;;5113018;27;19945;-29
2023/12/01 06:57:48;;;;;;;;;;;-1.40;99.90;;;;;;5110696;27;19969;-29
2023/12/01 07:00:28;;;;;;;;;;;-1.50;99.90;;;;;;5122875;27;19949;-30
2023/12/01 07:02:56;;;;;;;;;;;-1.50;99.90;;;;;;5111459;27;20532;-30
2023/12/01 07:05:23;;;;;;;;;;;-1.50;99.90;;;;;;5108133;27;20327;-29
2023/12/01 07:07:50;;;;;;;;;;;-1.50;99.90;;;;;;5115033;27;19945;-30
2023/12/01 07:10:16;;;;;;;;;;;-1.50;99.90;;;;;;5113122;27;19949;-30
2023/12/01 07:12:43;;;;;;;;;;;-1.50;99.90;;;;;;5131802;27;20656;-30
2023/12/01 07:15:12;;;;;;;;;;;-1.60;99.90;;;;;;5113218;27;19957;-30
2023/12/01 07:17:39;;;;;;;;;;;-1.60;99.90;;;;;;5114341;27;20512;-29
2023/12/01 07:20:13;;;;;;;;;;;-1.60;99.90;;;;;;5128636;27;19940;-30
2023/12/01 07:22:40;;;;;;;;;;;-1.60;99.90;;;;;;5111623;27;19984;-29
2023/12/01 07:25:10;;;;;;;;;;;-1.70;99.90;;;;;;5109993;27;20401;-30
2023/12/01 07:27:37;;;;;;;;;;;-1.70;99.90;;;;;;5102757;27;19937;-30
2023/12/01 07:30:04;;;;;;;;;;;-1.80;99.90;;;;;;5106656;27;20449;-30
2023/12/01 07:32:32;;;;;;;;;;;-1.80;99.90;;;;;;5131559;27;19945;-30
2023/12/01 07:34:58;;;;;;;;;;;-1.80;99.90;;;;;;5131802;27;19942;-30
2023/12/01 07:37:25;;;;;;;;;;;-1.80;99.90;;;;;;5130753;27;19940;-29
2023/12/01 07:39:51;;;;;;;;;;;-1.90;99.90;;;;;;5131908;27;20309;-29
2023/12/01 07:42:18;;;;;;;;;;;-1.90;99.90;;;;;;5115158;27;19939;-30
2023/12/01 07:44:45;;;;;;;;;;;-1.90;99.90;;;;;;5133156;27;19947;-30
2023/12/01 07:47:12;;;;;;;;;;;-1.90;99.90;;;;;;5115045;27;19946;-30
2023/12/01 07:49:40;;;;;;;;;;;-1.90;99.90;;;;;;5114769;27;19944;-30
2023/12/01 07:52:07;;;;;;;;;;;-1.90;99.90;;;;;;5114341;27;19994;-30
2023/12/01 07:54:35;;;;;;;;;;;-1.90;99.90;;;;;;5115049;27;20443;-30
2023/12/01 07:57:01;;;;;;;;;;;-1.90;99.90;;;;;;5114952;27;19937;-29
2023/12/01 07:59:28;;;;;;;;;;;-1.90;99.90;;;;;;5133009;27;20369;-30
2023/12/01 08:01:55;;;;;;;;;;;-1.90;99.90;;;;;;5132929;27;19946;-29
2023/12/01 08:04:21;;;;;;;;;;;-2.00;99.90;;;;;;5114848;27;19941;-30
2023/12/01 08:06:50;;;;;;;;;;;-2.00;99.90;;;;;;5114652;27;19938;-30
2023/12/01 08:09:17;;;;;;;;;;;-1.90;99.90;;;;;;5114377;27;19939;-29
2023/12/01 08:11:43;;;;;;;;;;;-2.00;99.90;;;;;;5125016;27;19971;-29
2023/12/01 08:14:10;;;;;;;;;;;-2.00;99.90;;;;;;5127420;27;20344;-29
2023/12/01 08:16:37;;;;;;;;;;;-1.90;99.90;;;;;;5096297;28;19940;-30
2023/12/01 08:19:03;;;;;;;;;;;-1.90;99.90;;;;;;5097919;27;20034;-30
2023/12/01 08:21:31;;;;;;;;;;;-1.90;99.90;;;;;;5104382;27;19940;-29
2023/12/01 08:23:59;;;;;;;;;;;-2.00;99.90;;;;;;5106814;27;19942;-29
2023/12/01 08:26:25;;;;;;;;;;;-2.00;99.90;;;;;;5127129;27;19938;-30
2023/12/01 08:28:54;;;;;;;;;;;-1.90;99.90;;;;;;5110370;27;20511;-30
2023/12/01 08:31:20;;;;;;;;;;;-2.00;99.90;;;;;;5131894;27;20461;-30
2023/12/01 08:33:47;;;;;;;;;;;-2.00;99.90;;;;;;5122770;27;19978;-30
2023/12/01 08:36:14;;;;;;;;;;;-2.00;99.90;;;;;;5108324;27;19946;-30
2023/12/01 08:38:41;;;;;;;;;;;-2.00;99.90;;;;;;5106315;27;20010;-30
2023/12/01 08:41:09;;;;;;;;;;;-2.00;99.90;;;;;;5102239;27;20452;-30
2023/12/01 08:43:36;;;;;;;;;;;-2.00;99.90;;;;;;5121724;27;20430;-31
2023/12/01 08:46:03;;;;;;;;;;;-2.00;99.90;;;;;;5127891;27;20448;-29
2023/12/01 08:48:29;;;;;;;;;;;-1.90;99.90;;;;;;5106769;28;19940;-30
2023/12/01 08:50:55;;;;;;;;;;;-1.90;99.90;;;;;;5116156;27;19936;-29
2023/12/01 08:53:23;;;;;;;;;;;-1.90;99.90;;;;;;5096365;28;20001;-29
2023/12/01 08:55:52;;;;;;;;;;;-1.90;99.90;;;;;;5100888;28;19936;-30
2023/12/01 08:58:22;;;;;;;;;;;-1.90;99.90;;;;;;5098640;27;20012;-30
2023/12/01 09:00:48;;;;;;;;;;;-1.80;99.90;;;;;;5098006;27;19941;-30
2023/12/01 09:03:15;;;;;;;;;;;-1.80;99.90;;;;;;5114161;27;19988;-30
2023/12/01 09:05:42;;;;;;;;;;;-1.80;99.90;;;;;;5095836;28;19945;-31
2023/12/01 09:08:08;;;;;;;;;;;-1.70;99.90;;;;;;5126185;27;20359;-29
2023/12/01 09:10:36;;;;;;;;;;;-1.70;99.90;;;;;;5109004;28;19946;-29
2023/12/01 09:13:03;;;;;;;;;;;-1.70;99.90;;;;;;5107794;28;19947;-30
2023/12/01 09:15:31;;;;;;;;;;;-1.70;99.90;;;;;;5127568;27;20398;-30
2023/12/01 09:17:57;;;;;;;;;;;-1.70;99.90;;;;;;5097360;28;19979;-30
2023/12/01 09:20:24;;;;;;;;;;;-1.60;99.90;;;;;;5120034;28;20000;-30
2023/12/01 09:22:51;;;;;;;;;;;-1.60;99.90;;;;;;5114359;28;19934;-30
2023/12/01 09:25:23;;;;;;;;;;;-1.50;99.90;;;;;;5116094;28;20446;-30
2023/12/01 09:27:50;;;;;;;;;;;-1.50;99.90;;;;;;5125132;28;20060;-30
2023/12/01 09:30:18;;;;;;;;;;;-1.50;99.90;;;;;;5105407;28;20453;-30
2023/12/01 09:32:46;;;;;;;;;;;-1.40;99.90;;;;;;5122243;28;19935;-30
2023/12/01 09:35:15;;;;;;;;;;;-1.40;99.90;;;;;;5108955;28;19951;-30
2023/12/01 09:37:42;;;;;;;;;;;-1.40;99.90;;;;;;5130128;28;20050;-30
2023/12/01 09:40:09;;;;;;;;;;;-1.30;99.90;;;;;;5106473;28;19957;-29
2023/12/01 09:42:36;;;;;;;;;;;-1.30;99.90;;;;;;5116088;28;20003;-31
2023/12/01 09:45:02;;;;;;;;;;;-1.20;99.90;;;;;;5106494;28;19950;-30
2023/12/01 09:47:30;;;;;;;;;;;-1.10;99.90;;;;;;5099641;28;19936;-29
2023/12/01 09:49:58;;;;;;;;;;;-1.10;99.90;;;;;;5114396;28;19947;-30
2023/12/01 09:52:25;;;;;;;;;;;-1.10;99.90;;;;;;5107688;28;20375;-31
2023/12/01 09:54:51;;;;;;;;;;;-1.00;99.90;;;;;;5125510;28;19952;-30
2023/12/01 09:57:18;;;;;;;;;;;-1.00;99.90;;;;;;5107354;28;20402;-29
2023/12/01 09:59:44;;;;;;;;;;;-0.90;99.90;;;;;;5097241;28;19948;-30
2023/12/01 10:02:11;;;;;;;;;;;-0.80;99.90;;;;;;5118962;28;19945;-30
2023/12/01 10:04:38;;;;;;;;;;;-0.90;99.90;;;;;;5109494;28;20384;-30
2023/12/01 10:07:06;;;;;;;;;;;-0.80;99.90;;;;;;5109459;28;20386;-29
2023/12/01 10:09:33;;;;;;;;;;;-0.70;99.90;;;;;;5122982;28;19949;-29
2023/12/01 10:12:04;;;;;;;;;;;-0.70;99.90;;;;;;5122561;28;20010;-30
2023/12/01 10:14:32;;;;;;;;;;;-0.80;99.90;;;;;;5100458;28;20342;-31
2023/12/01 10:17:01;;;;;;;;;;;-0.70;99.90;;;;;;5093629;28;19942;-30
2023/12/01 10:19:27;;;;;;;;;;;-0.70;99.90;;;;;;5114129;28;20007;-30
2023/12/01 10:21:55;;;;;;;;;;;-0.60;99.90;;;;;;5115610;28;19937;-30
2023/12/01 10:24:23;;;;;;;;;;;-0.60;99.90;;;;;;5115629;28;19941;-28
2023/12/01 10:26:50;;;;;;;;;;;-0.60;99.90;;;;;;5100887;28;19946;-30
2023/12/01 10:29:28;;;;;;;;;;;-0.60;99.90;;;;;;5098999;28;19940;-30
2023/12/01 10:31:55;;;;;;;;;;;-0.50;99.90;;;;;;5110487;27;19944;-31
2023/12/01 10:34:22;;;;;;;;;;;-0.60;99.90;;;;;;5126144;27;19939;-30
2023/12/01 10:36:49;;;;;;;;;;;-0.50;99.90;;;;;;5102432;27;19981;-29
2023/12/01 10:39:17;;;;;;;;;;;-0.50;99.90;;;;;;5115947;27;19994;-30
2023/12/01 10:41:45;;;;;;;;;;;-0.50;99.90;;;;;;5103225;27;20391;-31
2023/12/01 10:44:12;;;;;;;;;;;-0.50;99.90;;;;;;5116395;27;20020;-30
2023/12/01 10:46:39;;;;;;;;;;;-0.40;99.90;;;;;;5121462;27;19991;-30
2023/12/01 10:49:06;;;;;;;;;;;-0.30;99.90;;;;;;5099181;27;19937;-30
2023/12/01 10:51:32;;;;;;;;;;;-0.30;99.90;;;;;;5131025;27;19971;-29
2023/12/01 10:53:59;;;;;;;;;;;-0.20;99.90;;;;;;5132365;27;19975;-30
2023/12/01 10:56:26;;;;;;;;;;;-0.20;99.90;;;;;;5109788;27;19988;-30
2023/12/01 10:58:54;;;;;;;;;;;-0.10;99.90;;;;;;5128656;27;19985;-30
2023/12/01 11:01:22;;;;;;;;;;;-0.10;99.90;;;;;;5109059;27;19993;-29
2023/12/01 11:03:48;;;;;;;;;;;0.00;99.90;;;;;;5110872;27;19941;-30
2023/12/01 11:06:17;;;;;;;;;;;0.00;99.90;;;;;;5131192;27;20365;-29
2023/12/01 11:08:44;;;;;;;;;;;0.00;99.90;;;;;;5106072;27;19936;-29
2023/12/01 11:11:17;;;;;;;;;;;0.20;99.90;;;;;;5101709;28;20452;-30
2023/12/01 11:13:48;;;;;;;;;;;0.10;99.90;;;;;;5086429;28;19936;-29
2023/12/01 11:16:16;;;;;;;;;;;0.20;99.90;;;;;;5090778;28;19936;-29
2023/12/01 11:18:43;;;;;;;;;;;0.10;99.90;;;;;;5071300;28;19941;-29
2023/12/01 11:21:10;;;;;;;;;;;0.20;99.90;;;;;;5089666;28;19990;-29
2023/12/01 11:23:36;;;;;;;;;;;0.20;99.90;;;;;;5084630;28;19998;-30
2023/12/01 11:26:05;;;;;;;;;;;0.30;99.90;;;;;;5091424;28;19942;-30
2023/12/01 11:28:42;;;;;;;;;;;0.30;99.90;;;;;;5090549;28;20293;-30
2023/12/01 11:31:09;;;;;;;;;;;0.30;99.90;;;;;;5089339;28;19945;-30
2023/12/01 11:33:41;;;;;;;;;;;0.40;99.90;;;;;;5085417;28;19968;-30
2023/12/01 11:36:23;;;;;;;;;;;0.40;99.90;;;;;;5086665;28;19941;-29
2023/12/01 11:39:10;;;;;;;;;;;0.50;99.90;;;;;;5088749;28;19993;-30
2023/12/01 11:41:38;;;;;;;;;;;0.50;99.90;;;;;;5080509;28;20414;-29
2023/12/01 11:44:07;;;;;;;;;;;0.50;99.90;;;;;;5083522;28;19986;-30
2023/12/01 11:46:34;;;;;;;;;;;0.40;99.90;;;;;;5082976;28;19937;-30
2023/12/01 11:49:01;;;;;;;;;;;0.30;99.90;;;;;;5086982;28;19937;-30
2023/12/01 11:51:28;;;;;;;;;;;0.40;99.90;;;;;;5091689;28;19982;-30
2023/12/01 11:53:55;;;;;;;;;;;0.40;99.90;;;;;;5093710;28;20313;-29
2023/12/01 11:56:23;;;;;;;;;;;0.40;99.90;;;;;;5091118;28;20404;-31
2023/12/01 11:58:51;;;;;;;;;;;0.40;99.90;;;;;;5090370;28;19943;-30
2023/12/01 12:01:17;;;;;;;;;;;0.40;99.90;;;;;;5086148;28;19956;-30
2023/12/01 12:03:45;;;;;;;;;;;0.40;99.90;;;;;;5072375;28;19999;-29
2023/12/01 12:06:14;;;;;;;;;;;0.40;99.90;;;;;;5075734;28;19945;-30
2023/12/01 12:08:41;;;;;;;;;;;0.30;99.90;;;;;;5076840;28;19942;-31
2023/12/01 12:11:11;;;;;;;;;;;0.30;99.90;;;;;;5092857;28;19964;-30
2023/12/01 12:13:38;;;;;;;;;;;0.30;99.90;;;;;;5112692;28;20033;-29
2023/12/01 12:16:05;;;;;;;;;;;0.20;99.90;;;;;;5112316;28;19940;-30
2023/12/01 12:18:32;;;;;;;;;;;0.30;99.90;;;;;;5103184;28;20003;-30
2023/12/01 12:21:00;;;;;;;;;;;0.30;99.90;;;;;;5092246;28;20437;-30
2023/12/01 12:23:28;;;;;;;;;;;0.20;99.90;;;;;;5093159;28;20407;-30
2023/12/01 12:25:55;;;;;;;;;;;0.20;99.90;;;;;;5093106;28;20039;-30
2023/12/01 12:28:22;;;;;;;;;;;0.30;99.90;;;;;;5091654;28;19999;-30
2023/12/01 12:30:49;;;;;;;;;;;0.30;99.90;;;;;;5077192;28;19941;-30
2023/12/01 12:33:16;;;;;;;;;;;0.30;99.90;;;;;;5108567;28;20000;-31
2023/12/01 12:35:42;;;;;;;;;;;0.30;99.90;;;;;;5095331;28;19951;-30
2023/12/01 12:38:09;;;;;;;;;;;0.30;99.90;;;;;;5092393;28;20003;-30
2023/12/01 12:40:37;;;;;;;;;;;0.30;99.90;;;;;;5108714;28;20009;-30
2023/12/01 12:43:06;;;;;;;;;;;0.30;99.90;;;;;;5075065;28;19947;-30
2023/12/01 12:45:32;;;;;;;;;;;0.30;99.90;;;;;;5108589;28;19990;-31
2023/12/01 12:48:09;;;;;;;;;;;0.30;99.90;;;;;;5074269;28;19949;-30
2023/12/01 12:50:39;;;;;;;;;;;0.40;99.90;;;;;;5074928;28;19943;-30
2023/12/01 12:53:05;;;;;;;;;;;0.30;99.90;;;;;;5074802;28;19987;-30
2023/12/01 12:55:35;;;;;;;;;;;0.30;99.90;;;;;;5092550;28;19972;-30
2023/12/01 12:58:03;;;;;;;;;;;0.40;99.90;;;;;;5074253;28;19944;-31
2023/12/01 13:00:29;;;;;;;;;;;0.30;99.90;;;;;;5074289;28;19960;-30
2023/12/01 13:02:56;;;;;;;;;;;0.40;99.90;;;;;;5075860;28;20449;-30
2023/12/01 13:05:22;;;;;;;;;;;0.30;99.90;;;;;;5074850;28;19988;-30
2023/12/01 13:07:49;;;;;;;;;;;0.40;99.90;;;;;;5092441;28;19942;-30
2023/12/01 13:10:16;;;;;;;;;;;0.30;99.90;;;;;;5074792;28;19988;-28
2023/12/01 13:12:42;;;;;;;;;;;0.30;99.90;;;;;;5113991;28;19970;-30
2023/12/01 13:15:11;;;;;;;;;;;0.30;99.90;;;;;;5115469;27;20371;-31
2023/12/01 13:17:37;;;;;;;;;;;0.30;99.90;;;;;;5130406;27;19941;-30
2023/12/01 13:20:07;;;;;;;;;;;0.30;99.90;;;;;;5095082;28;20097;-30
2023/12/01 13:22:33;;;;;;;;;;;0.30;99.90;;;;;;5112642;28;19940;-30
2023/12/01 13:25:02;;;;;;;;;;;0.40;99.90;;;;;;5105889;28;19943;-29
2023/12/01 13:27:29;;;;;;;;;;;0.30;99.90;;;;;;5109685;28;20397;-31
2023/12/01 13:29:55;;;;;;;;;;;0.30;99.90;;;;;;5101160;28;19936;-30
2023/12/01 13:32:23;;;;;;;;;;;0.30;99.90;;;;;;5121961;28;19944;-30
2023/12/01 13:34:50;;;;;;;;;;;0.30;99.90;;;;;;5129396;28;19969;-30
2023/12/01 13:37:17;;;;;;;;;;;0.30;99.90;;;;;;5111411;28;19944;-31
2023/12/01 13:39:43;;;;;;;;;;;0.20;99.90;;;;;;5103788;28;19946;-30
2023/12/01 13:42:10;;;;;;;;;;;0.20;99.90;;;;;;5123630;28;20370;-30
2023/12/01 13:44:36;;;;;;;;;;;0.10;99.90;;;;;;5105406;28;19935;-29
2023/12/01 13:47:03;;;;;;;;;;;0.20;99.90;;;;;;5111641;28;19950;-29
2023/12/01 13:49:31;;;;;;;;;;;0.20;99.90;;;;;;5110130;28;19937;-30
2023/12/01 13:51:58;;;;;;;;;;;0.20;99.90;;;;;;5128524;28;20084;-29
2023/12/01 13:54:24;;;;;;;;;;;0.20;99.90;;;;;;5100407;28;19937;-29
2023/12/01 13:56:51;;;;;;;;;;;0.20;99.90;;;;;;5110782;28;20028;-29
2023/12/01 13:59:18;;;;;;;;;;;0.20;99.90;;;;;;5108660;27;20276;-29
2023/12/01 14:01:44;;;;;;;;;;;0.30;99.90;;;;;;5112716;27;20416;-31
2023/12/01 14:04:11;;;;;;;;;;;0.20;99.90;;;;;;5136175;27;19985;-30
2023/12/01 14:06:39;;;;;;;;;;;0.20;99.90;;;;;;5126226;27;19981;-30
2023/12/01 14:09:06;;;;;;;;;;;0.30;99.90;;;;;;5111274;27;20519;-30
2023/12/01 14:11:32;;;;;;;;;;;0.30;99.90;;;;;;5105710;28;19965;-30
2023/12/01 14:13:59;;;;;;;;;;;0.30;99.90;;;;;;5092898;28;19943;-30
2023/12/01 14:16:26;;;;;;;;;;;0.20;99.90;;;;;;5093805;28;19972;-29
2023/12/01 14:18:53;;;;;;;;;;;0.20;99.90;;;;;;5093283;28;19936;-30
2023/12/01 14:21:20;;;;;;;;;;;0.10;99.90;;;;;;5092278;28;20055;-30
2023/12/01 14:23:48;;;;;;;;;;;0.10;99.90;;;;;;5096158;28;19989;-30